createdAt,value
2022-09-20T00:01:29.363Z,5.80
2022-09-20T00:03:58.748Z,2.58
2022-09-20T00:06:29.293Z,4.82
2022-09-20T00:08:56.586Z,3.20
2022-09-20T00:11:25.606Z,3.70
2022-09-20T00:13:54.569Z,7.80
2022-09-20T00:16:24.164Z,5.03
2022-09-20T00:18:52.180Z,3.38
2022-09-20T00:21:21.406Z,5.13
2022-09-20T00:23:48.385Z,4.82
2022-09-20T00:26:15.068Z,5.43
2022-09-20T00:28:41.824Z,3.28
2022-09-20T00:31:08.257Z,4.05
2022-09-20T00:33:53.479Z,2.47
2022-09-20T00:36:19.920Z,5.43
2022-09-20T00:38:46.420Z,4.22
2022-09-20T00:41:12.831Z,4.82
2022-09-20T00:43:44.941Z,4.60
2022-09-20T00:46:26.352Z,4.22
2022-09-20T00:48:55.972Z,3.28
2022-09-20T00:51:29.227Z,2.25
2022-09-20T00:54:00.856Z,7.93
2022-09-20T00:56:34.614Z,6.55
2022-09-20T00:59:16.494Z,2.85
2022-09-20T01:01:46.260Z,3.00
2022-09-20T01:04:14.734Z,6.10
2022-09-20T01:06:44.730Z,7.57
2022-09-20T01:09:11.089Z,3.45
2022-09-20T01:11:38.822Z,2.65
2022-09-20T01:14:05.275Z,3.13
2022-09-20T01:16:33.788Z,6.07
2022-09-20T01:19:05.516Z,2.08
2022-09-20T01:21:32.460Z,2.45
2022-09-20T01:24:22.290Z,2.78
2022-09-20T01:26:57.968Z,2.47
2022-09-20T01:29:56.920Z,3.30
2022-09-20T01:32:27.621Z,3.85
2022-09-20T01:35:01.028Z,3.75
2022-09-20T01:37:35.532Z,2.42
2022-09-20T01:40:27.812Z,1.70
2022-09-20T01:43:34.273Z,2.58
2022-09-20T01:46:12.332Z,4.93
2022-09-20T01:48:42.072Z,2.33
2022-09-20T01:51:48.205Z,4.70
2022-09-20T01:54:45.106Z,3.42
2022-09-20T01:57:27.450Z,4.35
2022-09-20T02:00:04.205Z,3.20
2022-09-20T02:02:50.519Z,5.47
2022-09-20T02:05:47.531Z,5.25
2022-09-20T02:08:46.655Z,3.78
2022-09-20T02:11:23.310Z,4.82
2022-09-20T02:14:51.952Z,4.07
2022-09-20T02:17:44.343Z,4.63
2022-09-20T02:20:33.186Z,3.40
2022-09-20T02:23:36.442Z,5.18
2022-09-20T02:26:09.027Z,4.63
2022-09-20T02:29:05.972Z,3.80
2022-09-20T02:31:43.805Z,4.95
2022-09-20T02:34:36.741Z,8.65
2022-09-20T02:37:22.495Z,5.15
2022-09-20T02:39:57.704Z,4.03
2022-09-20T02:42:37.569Z,3.88
2022-09-20T02:45:26.158Z,6.70
2022-09-20T02:47:56.341Z,4.10
2022-09-20T02:50:33.102Z,7.07
2022-09-20T02:53:27.173Z,3.70
2022-09-20T02:56:22.356Z,3.45
2022-09-20T02:59:18.789Z,4.47
2022-09-20T03:01:57.801Z,3.92
2022-09-20T03:04:24.195Z,5.10
2022-09-20T03:07:12.273Z,5.50
2022-09-20T03:09:57.955Z,6.82
2022-09-20T03:12:48.528Z,4.05
2022-09-20T03:15:20.709Z,5.47
2022-09-20T03:18:00.649Z,5.47
2022-09-20T03:20:50.985Z,6.18
2022-09-20T03:23:48.640Z,6.03
2022-09-20T03:26:35.623Z,4.63
2022-09-20T03:29:08.119Z,4.47
2022-09-20T03:31:55.707Z,4.00
2022-09-20T03:34:47.453Z,3.65
2022-09-20T03:37:41.393Z,4.20
2022-09-20T03:40:42.821Z,8.63
2022-09-20T03:43:36.849Z,6.70
2022-09-20T03:46:18.580Z,3.80
2022-09-20T03:48:47.717Z,3.65
2022-09-20T03:51:39.120Z,5.07
2022-09-20T03:54:31.050Z,3.75
2022-09-20T03:57:25.933Z,8.50
2022-09-20T04:00:13.600Z,8.07
2022-09-20T04:03:12.953Z,5.45
2022-09-20T04:05:58.083Z,8.55
2022-09-20T04:08:58.651Z,6.70
2022-09-20T04:11:35.854Z,4.63
2022-09-20T04:14:17.046Z,9.68
2022-09-20T04:16:58.140Z,6.43
2022-09-20T04:19:33.420Z,7.05
2022-09-20T04:22:01.625Z,6.03
2022-09-20T04:24:56.399Z,7.43
2022-09-20T04:27:32.172Z,7.10
2022-09-20T04:30:05.404Z,7.72
2022-09-20T04:35:50.580Z,4.53
2022-09-20T04:38:20.256Z,5.28
2022-09-20T04:41:07.978Z,6.05
2022-09-20T04:43:53.587Z,7.10
2022-09-20T04:47:00.787Z,4.38
2022-09-20T04:49:53.853Z,8.63
2022-09-20T04:52:24.633Z,6.88
2022-09-20T04:55:19.119Z,7.55
2022-09-20T04:58:10.184Z,7.80
2022-09-20T05:01:16.723Z,8.00
2022-09-20T05:04:18.312Z,5.63
2022-09-20T05:06:57.358Z,6.93
2022-09-20T05:09:35.820Z,10.50
2022-09-20T05:12:36.223Z,4.57
2022-09-20T05:15:36.636Z,6.78
2022-09-20T05:18:34.977Z,9.25
2022-09-20T05:21:32.462Z,6.13
2022-09-20T05:24:04.512Z,7.25
2022-09-20T05:26:40.489Z,12.60
2022-09-20T05:29:25.097Z,10.68
2022-09-20T05:32:12.313Z,11.18
2022-09-20T05:35:00.520Z,10.15
2022-09-20T05:37:39.526Z,6.55
2022-09-20T05:40:15.078Z,12.15
2022-09-20T05:43:11.294Z,17.15
2022-09-20T05:46:05.338Z,10.48
2022-09-20T05:49:00.384Z,13.07
2022-09-20T05:51:33.619Z,10.32
2022-09-20T05:54:15.343Z,6.88
2022-09-20T05:57:10.260Z,7.35
2022-09-20T06:00:10.321Z,8.32
2022-09-20T06:03:06.265Z,8.10
2022-09-20T06:05:38.278Z,7.75
2022-09-20T06:08:18.427Z,6.35
2022-09-20T06:11:03.413Z,9.60
2022-09-20T06:13:49.687Z,5.60
2022-09-20T06:16:32.459Z,10.85
2022-09-20T06:19:09.719Z,7.20
2022-09-20T06:21:52.290Z,6.95
2022-09-20T06:24:44.571Z,8.73
2022-09-20T06:27:17.317Z,6.05
2022-09-20T06:29:52.298Z,6.35
2022-09-20T06:32:19.091Z,10.82
2022-09-20T06:34:47.316Z,8.20
2022-09-20T06:37:53.681Z,4.57
2022-09-20T06:40:57.522Z,12.05
2022-09-20T06:43:23.985Z,6.68
2022-09-20T06:45:50.415Z,8.13
2022-09-20T06:48:19.093Z,8.50
2022-09-20T06:50:45.807Z,7.25
2022-09-20T06:53:18.362Z,7.93
2022-09-20T06:55:45.772Z,6.90
2022-09-20T06:58:12.389Z,6.55
2022-09-20T07:00:39.770Z,9.73
2022-09-20T07:03:07.025Z,5.85
2022-09-20T07:05:33.393Z,5.68
2022-09-20T07:08:00.997Z,6.13
2022-09-20T07:10:28.518Z,6.43
2022-09-20T07:12:59.351Z,5.60
2022-09-20T07:15:31.001Z,5.22
2022-09-20T07:17:57.444Z,5.15
2022-09-20T07:20:24.140Z,11.10
2022-09-20T07:22:50.985Z,7.15
2022-09-20T07:25:20.258Z,6.05
2022-09-20T07:27:49.642Z,9.90
2022-09-20T07:30:16.753Z,8.35
2022-09-20T07:32:43.216Z,14.60
2022-09-20T07:35:10.594Z,12.10
2022-09-20T07:37:38.540Z,8.10
2022-09-20T07:40:05.471Z,7.78
2022-09-20T07:42:32.025Z,11.27
2022-09-20T07:44:58.721Z,7.85
2022-09-20T07:47:26.436Z,9.48
2022-09-20T07:49:52.964Z,10.82
2022-09-20T07:52:19.981Z,7.90
2022-09-20T07:54:47.071Z,7.00
2022-09-20T07:57:13.727Z,8.68
2022-09-20T07:59:40.115Z,11.05
2022-09-20T08:02:06.672Z,10.82
2022-09-20T08:04:33.172Z,14.73
2022-09-20T08:07:01.380Z,8.85
2022-09-20T08:09:27.716Z,9.13
2022-09-20T08:11:55.619Z,8.90
2022-09-20T08:14:22.590Z,12.27
2022-09-20T08:16:50.340Z,12.55
2022-09-20T08:19:19.196Z,10.82
2022-09-20T08:21:45.627Z,11.25
2022-09-20T08:24:12.895Z,9.13
2022-09-20T08:26:39.638Z,8.13
2022-09-20T08:29:06.643Z,9.63
2022-09-20T08:31:36.786Z,9.82
2022-09-20T08:34:07.109Z,10.27
2022-09-20T08:36:36.687Z,6.93
2022-09-20T08:41:56.915Z,8.77
2022-09-20T08:44:35.887Z,14.00
2022-09-20T08:47:22.483Z,10.38
2022-09-20T08:49:56.914Z,9.52
2022-09-20T08:52:39.133Z,6.97
2022-09-20T08:55:22.616Z,7.53
2022-09-20T08:57:51.875Z,9.18
2022-09-20T09:00:25.208Z,12.98
2022-09-20T09:02:57.722Z,9.15
2022-09-20T09:05:37.023Z,7.72
2022-09-20T09:08:16.154Z,10.00
2022-09-20T09:10:46.749Z,4.75
2022-09-20T09:13:24.540Z,6.07
2022-09-20T09:16:02.726Z,9.85
2022-09-20T09:18:37.351Z,6.43
2022-09-20T09:21:05.980Z,6.90
2022-09-20T09:23:43.797Z,7.68
2022-09-20T09:26:20.987Z,7.53
2022-09-20T09:28:48.313Z,5.15
2022-09-20T09:31:26.051Z,7.50
2022-09-20T09:33:52.589Z,5.03
2022-09-20T09:36:25.598Z,10.27
2022-09-20T09:41:38.323Z,4.47
2022-09-20T09:44:09.825Z,2.55
2022-09-20T09:46:38.843Z,4.03
2022-09-20T09:49:21.677Z,5.63
2022-09-20T09:52:01.508Z,3.63
2022-09-20T09:54:32.246Z,6.82
2022-09-20T09:57:20.555Z,4.95
2022-09-20T10:00:19.760Z,4.93
2022-09-20T10:03:04.009Z,4.18
2022-09-20T10:06:10.931Z,4.32
2022-09-20T10:08:55.706Z,5.05
2022-09-20T10:11:45.124Z,6.40
2022-09-20T10:14:30.360Z,4.80
2022-09-20T10:17:09.059Z,5.75
2022-09-20T10:20:09.775Z,6.63
2022-09-20T10:23:14.629Z,4.53
2022-09-20T10:26:13.285Z,7.95
2022-09-20T10:29:00.863Z,5.85
2022-09-20T10:32:05.485Z,4.63
2022-09-20T10:34:50.548Z,7.88
2022-09-20T10:37:58.995Z,6.50
2022-09-20T10:40:53.313Z,6.63
2022-09-20T10:43:48.873Z,4.20
2022-09-20T10:46:34.822Z,4.13
2022-09-20T10:49:35.286Z,4.60
2022-09-20T10:52:28.877Z,3.50
2022-09-20T10:55:26.551Z,6.20
2022-09-20T10:58:09.674Z,5.28
2022-09-20T11:00:44.077Z,3.75
2022-09-20T11:03:13.372Z,2.97
2022-09-20T11:06:04.258Z,1.70
2022-09-20T11:08:35.531Z,2.78
2022-09-20T11:11:12.341Z,2.40
2022-09-20T11:14:03.111Z,4.72
2022-09-20T11:16:36.497Z,3.88
2022-09-20T11:19:26.898Z,5.43
2022-09-20T11:21:58.788Z,3.78
2022-09-20T11:24:45.692Z,6.35
2022-09-20T11:27:29.421Z,4.80
2022-09-20T11:30:08.228Z,4.95
2022-09-20T11:32:43.378Z,4.30
2022-09-20T11:35:14.624Z,7.63
2022-09-20T11:37:50.365Z,5.55
2022-09-20T11:40:29.671Z,4.60
2022-09-20T11:42:59.094Z,5.03
2022-09-20T11:45:28.563Z,4.18
2022-09-20T11:48:02.889Z,3.20
2022-09-20T11:50:47.403Z,2.80
2022-09-20T11:53:24.304Z,3.15
2022-09-20T11:55:58.987Z,7.10
2022-09-20T11:58:27.650Z,5.78
2022-09-20T12:00:57.380Z,4.38
2022-09-20T12:03:40.005Z,3.47
2022-09-20T12:06:29.765Z,6.43
2022-09-20T12:08:58.373Z,3.25
2022-09-20T12:11:39.949Z,2.38
2022-09-20T12:14:17.892Z,4.47
2022-09-20T12:16:47.505Z,4.07
2022-09-20T12:19:36.259Z,4.85
2022-09-20T12:22:05.298Z,5.57
2022-09-20T12:24:34.641Z,5.63
2022-09-20T12:27:20.159Z,3.15
2022-09-20T12:29:47.479Z,8.45
2022-09-20T12:32:39.756Z,6.40
2022-09-20T12:35:40.326Z,3.90
2022-09-20T12:38:28.786Z,3.47
2022-09-20T12:41:09.714Z,4.07
2022-09-20T12:43:46.754Z,3.65
2022-09-20T12:46:31.721Z,5.20
2022-09-20T12:49:50.199Z,2.78
2022-09-20T12:52:46.555Z,4.35
2022-09-20T12:55:45.908Z,5.05
2022-09-20T12:58:15.013Z,8.85
2022-09-20T13:01:04.690Z,7.13
2022-09-20T13:03:42.450Z,5.25
2022-09-20T13:06:23.395Z,6.25
2022-09-20T13:09:06.028Z,3.60
2022-09-20T13:11:52.219Z,5.82
2022-09-20T13:14:23.622Z,4.53
2022-09-20T13:17:01.219Z,5.43
2022-09-20T13:19:38.857Z,4.10
2022-09-20T13:22:14.165Z,5.00
2022-09-20T13:24:45.006Z,3.20
2022-09-20T13:27:19.799Z,3.33
2022-09-20T13:29:46.890Z,7.53
2022-09-20T13:32:25.286Z,4.80
2022-09-20T13:35:10.166Z,4.80
2022-09-20T13:37:42.873Z,4.45
2022-09-20T13:40:18.776Z,4.97
2022-09-20T13:42:46.551Z,5.05
2022-09-20T13:45:14.588Z,3.67
2022-09-20T13:47:48.709Z,5.38
2022-09-20T13:50:15.020Z,3.47
2022-09-20T13:52:50.711Z,2.47
2022-09-20T13:55:38.554Z,4.97
2022-09-20T13:58:26.500Z,4.05
2022-09-20T14:01:03.326Z,2.90
2022-09-20T14:03:32.252Z,3.05
2022-09-20T14:06:13.424Z,3.90
2022-09-20T14:08:48.088Z,3.70
2022-09-20T14:11:18.539Z,5.35
2022-09-20T14:13:49.902Z,4.38
2022-09-20T14:16:18.546Z,5.80
2022-09-20T14:18:47.916Z,3.22
2022-09-20T14:21:21.387Z,2.38
2022-09-20T14:24:02.671Z,1.80
2022-09-20T14:26:36.156Z,1.40
2022-09-20T14:29:39.841Z,1.83
2022-09-20T14:32:37.926Z,2.17
2022-09-20T14:35:20.100Z,1.40
2022-09-20T14:38:01.451Z,2.30
2022-09-20T14:40:48.578Z,3.60
2022-09-20T14:43:35.940Z,2.58
2022-09-20T14:46:04.690Z,1.63
2022-09-20T14:48:33.012Z,2.90
2022-09-20T14:51:16.202Z,4.07
2022-09-20T14:53:47.659Z,5.03
2022-09-20T14:56:26.898Z,4.10
2022-09-20T14:59:11.594Z,2.67
2022-09-20T15:01:41.142Z,2.60
2022-09-20T15:04:09.883Z,4.28
2022-09-20T15:06:39.909Z,5.68
2022-09-20T15:09:06.524Z,4.00
2022-09-20T15:11:32.949Z,2.75
2022-09-20T15:13:59.306Z,4.32
2022-09-20T15:16:27.340Z,2.30
2022-09-20T15:18:54.767Z,2.35
2022-09-20T15:21:21.679Z,1.38
2022-09-20T15:23:48.405Z,3.22
2022-09-20T15:26:15.786Z,2.33
2022-09-20T15:28:42.151Z,2.08
2022-09-20T15:31:10.097Z,3.42
2022-09-20T15:33:36.505Z,2.58
2022-09-20T15:36:04.065Z,2.58
2022-09-20T15:38:30.525Z,2.70
2022-09-20T15:41:00.747Z,3.72
2022-09-20T15:43:28.155Z,3.83
2022-09-20T15:45:57.618Z,0.82
2022-09-20T15:48:25.632Z,2.97
2022-09-20T15:51:07.119Z,1.17
2022-09-20T15:53:34.890Z,1.25
2022-09-20T15:56:04.625Z,2.40
2022-09-20T15:58:36.283Z,2.63
2022-09-20T16:01:08.133Z,2.03
2022-09-20T16:03:36.024Z,3.05
2022-09-20T16:06:07.553Z,5.00
2022-09-20T16:08:36.109Z,4.20
2022-09-20T16:11:03.407Z,2.75
2022-09-20T16:13:30.109Z,3.22
2022-09-20T16:15:58.249Z,1.95
2022-09-20T16:18:43.383Z,1.70
2022-09-20T16:21:12.495Z,2.33
2022-09-20T16:23:40.104Z,1.45
2022-09-20T16:26:12.871Z,4.03
2022-09-20T16:28:47.208Z,1.45
2022-09-20T16:31:43.667Z,2.05
2022-09-20T16:34:30.151Z,2.85
2022-09-20T16:36:58.910Z,1.75
2022-09-20T16:39:27.504Z,3.20
2022-09-20T16:42:04.665Z,3.78
2022-09-20T16:44:36.297Z,3.47
2022-09-20T16:47:07.931Z,3.08
2022-09-20T16:49:37.568Z,2.28
2022-09-20T16:52:04.935Z,1.95
2022-09-20T16:54:32.170Z,2.15
2022-09-20T16:56:58.938Z,3.47
2022-09-20T16:59:25.567Z,3.85
2022-09-20T17:01:52.419Z,4.78
2022-09-20T17:04:20.929Z,3.22
2022-09-20T17:06:48.796Z,5.40
2022-09-20T17:09:15.976Z,2.22
2022-09-20T17:11:50.089Z,5.30
2022-09-20T17:14:18.683Z,3.17
2022-09-20T17:16:49.091Z,4.20
2022-09-20T17:19:18.445Z,4.15
2022-09-20T17:21:49.956Z,3.65
2022-09-20T17:24:18.499Z,1.92
2022-09-20T17:26:45.698Z,1.45
2022-09-20T17:29:15.179Z,3.38
2022-09-20T17:31:48.797Z,3.35
2022-09-20T17:34:21.406Z,3.53
2022-09-20T17:36:53.985Z,3.70
2022-09-20T17:39:20.367Z,2.00
2022-09-20T17:41:48.239Z,1.95
2022-09-20T17:44:15.376Z,2.50
2022-09-20T17:46:44.134Z,3.45
2022-09-20T17:49:12.831Z,3.00
2022-09-20T17:51:41.853Z,2.08
2022-09-20T17:54:12.724Z,2.50
2022-09-20T17:56:42.320Z,3.50
2022-09-20T17:59:09.785Z,4.47
2022-09-20T18:01:37.585Z,3.17
2022-09-20T18:04:05.851Z,3.38
2022-09-20T18:06:37.297Z,3.33
2022-09-20T18:09:09.325Z,3.08
2022-09-20T18:11:42.020Z,6.30
2022-09-20T18:14:15.763Z,6.20
2022-09-20T18:16:44.105Z,3.72
2022-09-20T18:19:11.307Z,4.80
2022-09-20T18:21:40.723Z,6.40
2022-09-20T18:24:09.265Z,6.82
2022-09-20T18:26:36.829Z,6.90
2022-09-20T18:29:03.386Z,5.35
2022-09-20T18:31:33.321Z,4.70
2022-09-20T18:34:00.748Z,2.75
2022-09-20T18:36:33.722Z,2.88
2022-09-20T18:41:31.646Z,2.58
2022-09-20T18:43:58.378Z,1.65
2022-09-20T18:46:26.800Z,1.67
2022-09-20T18:49:04.557Z,3.22
2022-09-20T18:51:34.760Z,3.20
2022-09-20T18:54:04.413Z,3.35
2022-09-20T18:56:33.583Z,3.28
2022-09-20T18:59:03.984Z,1.75
2022-09-20T19:01:57.985Z,2.70
2022-09-20T19:04:58.612Z,2.17
2022-09-20T19:07:28.049Z,5.47
2022-09-20T19:10:05.673Z,2.40
2022-09-20T19:12:57.303Z,2.65
2022-09-20T19:15:30.423Z,2.55
2022-09-20T19:20:46.184Z,2.53
2022-09-20T19:23:50.331Z,2.60
2022-09-20T19:26:27.935Z,2.25
2022-09-20T19:28:59.952Z,4.15
2022-09-20T19:31:29.373Z,3.95
2022-09-20T19:33:58.662Z,3.03
2022-09-20T19:36:40.451Z,3.03
2022-09-20T19:39:40.409Z,2.13
2022-09-20T19:42:32.100Z,3.75
2022-09-20T19:45:28.815Z,2.72
2022-09-20T19:48:06.040Z,2.00
2022-09-20T19:50:44.562Z,3.00
2022-09-20T19:53:12.227Z,1.63
2022-09-20T19:55:38.858Z,3.75
2022-09-20T19:58:05.550Z,2.38
2022-09-20T20:00:32.338Z,1.40
2022-09-20T20:02:59.095Z,1.55
2022-09-20T20:05:27.424Z,4.00
2022-09-20T20:08:17.435Z,3.15
2022-09-20T20:11:15.143Z,2.50
2022-09-20T20:14:12.370Z,2.38
2022-09-20T20:17:09.830Z,3.58
2022-09-20T20:20:01.396Z,1.67
2022-09-20T20:22:43.547Z,2.15
2022-09-20T20:25:55.475Z,1.83
2022-09-20T20:28:21.895Z,2.50
2022-09-20T20:30:48.216Z,2.42
2022-09-20T20:33:19.143Z,3.80
2022-09-20T20:35:55.865Z,2.25
2022-09-20T20:38:26.297Z,3.63
2022-09-20T20:41:05.040Z,3.63
2022-09-20T20:43:32.792Z,3.50
2022-09-20T20:45:59.214Z,2.22
2022-09-20T20:48:25.834Z,2.85
2022-09-20T20:50:59.981Z,5.97
2022-09-20T20:53:29.718Z,2.70
2022-09-20T20:56:07.551Z,2.60
2022-09-20T20:58:40.851Z,2.97
2022-09-20T21:01:08.764Z,2.58
2022-09-20T21:03:35.206Z,3.15
2022-09-20T21:06:04.771Z,3.67
2022-09-20T21:08:34.444Z,3.28
2022-09-20T21:11:04.992Z,2.97
2022-09-20T21:13:32.828Z,3.70
2022-09-20T21:16:06.540Z,2.63
2022-09-20T21:18:34.561Z,1.85
2022-09-20T21:21:04.270Z,4.72
2022-09-20T21:23:37.587Z,1.98
2022-09-20T21:26:12.310Z,2.80
2022-09-20T21:28:41.919Z,2.05
2022-09-20T21:31:10.134Z,2.67
2022-09-20T21:33:40.681Z,2.95
2022-09-20T21:36:09.173Z,2.28
2022-09-20T21:38:36.955Z,2.22
2022-09-20T21:41:08.839Z,2.78
2022-09-20T21:43:36.502Z,1.33
2022-09-20T21:46:04.202Z,2.40
2022-09-20T21:48:33.822Z,4.32
2022-09-20T21:51:14.258Z,2.35
2022-09-20T21:53:55.983Z,2.15
2022-09-20T21:56:36.404Z,4.28
2022-09-20T21:59:04.616Z,3.53
2022-09-20T22:01:34.420Z,3.47
2022-09-20T22:04:05.060Z,4.22
2022-09-20T22:06:33.850Z,3.25
2022-09-20T22:09:06.005Z,2.70
2022-09-20T22:11:36.084Z,3.85
2022-09-20T22:14:02.456Z,2.65
2022-09-20T22:16:31.283Z,3.42
2022-09-20T22:19:01.457Z,4.05
2022-09-20T22:21:36.722Z,3.00
2022-09-20T22:24:05.783Z,1.70
2022-09-20T22:26:34.744Z,6.38
2022-09-20T22:29:01.399Z,2.05
2022-09-20T22:31:30.001Z,4.53
2022-09-20T22:33:58.502Z,1.65
2022-09-20T22:36:27.107Z,2.88
2022-09-20T22:38:54.116Z,4.32
2022-09-20T22:41:21.445Z,2.10
2022-09-20T22:43:48.659Z,4.22
2022-09-20T22:46:17.844Z,2.45
2022-09-20T22:48:44.583Z,3.20
2022-09-20T22:51:16.563Z,3.97
2022-09-20T22:53:43.541Z,2.85
2022-09-20T22:56:11.905Z,2.25
2022-09-20T22:58:49.415Z,2.33
2022-09-20T23:01:21.479Z,2.58
2022-09-20T23:04:07.432Z,3.37
2022-09-20T23:06:36.705Z,2.92
2022-09-20T23:09:05.511Z,3.45
2022-09-20T23:11:32.575Z,2.60
2022-09-20T23:14:01.259Z,3.85
2022-09-20T23:16:29.929Z,2.40
2022-09-20T23:18:58.008Z,2.75
2022-09-20T23:21:24.655Z,3.55
2022-09-20T23:23:59.295Z,2.35
2022-09-20T23:26:26.876Z,4.57
2022-09-20T23:28:58.550Z,2.53
2022-09-20T23:31:26.839Z,3.22
2022-09-20T23:33:55.657Z,1.83
2022-09-20T23:36:23.338Z,2.20
2022-09-20T23:38:49.808Z,3.17
2022-09-20T23:41:19.408Z,4.03
2022-09-20T23:43:46.016Z,2.33
2022-09-20T23:46:14.839Z,2.53
2022-09-20T23:48:42.052Z,1.95
2022-09-20T23:51:11.539Z,2.15
2022-09-20T23:53:38.143Z,2.47
2022-09-20T23:56:06.097Z,1.88
2022-09-20T23:58:33.256Z,3.78
